createdAt,value
2018-02-12T00:00:09.638Z,5.73
2018-02-12T00:02:37.022Z,5.97
2018-02-12T00:05:04.455Z,5.20
2018-02-12T00:07:31.842Z,5.27
2018-02-12T00:09:59.265Z,4.57
2018-02-12T00:12:26.660Z,4.87
2018-02-12T00:14:54.050Z,5.40
2018-02-12T00:17:21.434Z,5.43
2018-02-12T00:19:48.845Z,5.40
2018-02-12T00:22:16.357Z,5.37
2018-02-12T00:24:43.745Z,5.77
2018-02-12T00:27:11.118Z,5.37
2018-02-12T00:29:38.502Z,5.33
2018-02-12T00:32:05.878Z,5.53
2018-02-12T00:34:33.261Z,4.67
2018-02-12T00:37:00.637Z,6.13
2018-02-12T00:39:28.029Z,5.70
2018-02-12T00:41:55.414Z,6.77
2018-02-12T00:44:22.822Z,6.27
2018-02-12T00:46:50.210Z,7.27
2018-02-12T00:49:17.606Z,6.17
2018-02-12T00:51:44.991Z,6.30
2018-02-12T00:54:12.442Z,7.60
2018-02-12T00:56:39.836Z,8.17
2018-02-12T00:59:07.231Z,7.43
2018-02-12T01:01:34.714Z,7.90
2018-02-12T01:04:02.102Z,8.37
2018-02-12T01:06:29.486Z,8.37
2018-02-12T01:08:56.974Z,7.30
2018-02-12T01:11:24.354Z,7.50
2018-02-12T01:16:16.162Z,7.40
2018-02-12T01:18:43.542Z,7.30
2018-02-12T01:21:10.927Z,7.50
2018-02-12T01:23:38.321Z,6.97
2018-02-12T01:26:05.727Z,6.93
2018-02-12T01:28:33.083Z,5.80
2018-02-12T01:31:00.466Z,5.73
2018-02-12T01:33:27.949Z,6.40
2018-02-12T01:35:55.405Z,6.40
2018-02-12T01:38:22.861Z,5.90
2018-02-12T01:40:50.318Z,5.23
2018-02-12T01:43:17.718Z,5.43
2018-02-12T01:45:45.136Z,5.60
2018-02-12T01:48:12.518Z,5.10
2018-02-12T01:50:39.909Z,4.67
2018-02-12T01:53:07.314Z,4.53
2018-02-12T01:55:34.701Z,5.67
2018-02-12T01:58:02.102Z,4.77
2018-02-12T02:00:29.563Z,4.50
2018-02-12T02:02:56.962Z,4.53
2018-02-12T02:05:24.347Z,4.50
2018-02-12T02:07:51.739Z,5.20
2018-02-12T02:10:19.178Z,4.30
2018-02-12T02:12:46.629Z,4.87
2018-02-12T02:15:14.038Z,5.30
2018-02-12T02:17:41.414Z,5.80
2018-02-12T02:20:08.802Z,6.00
2018-02-12T02:22:36.174Z,6.93
2018-02-12T02:25:03.610Z,6.40
2018-02-12T02:27:31.062Z,6.17
2018-02-12T02:29:58.454Z,6.90
2018-02-12T02:32:25.877Z,6.62
2018-02-12T02:34:53.336Z,7.43
2018-02-12T02:37:20.815Z,6.80
2018-02-12T02:39:48.251Z,7.10
2018-02-12T02:42:15.634Z,6.97
2018-02-12T02:44:43.024Z,6.80
2018-02-12T02:47:10.401Z,6.80
2018-02-12T02:49:37.786Z,7.10
2018-02-12T02:52:05.170Z,6.87
2018-02-12T02:54:32.570Z,7.13
2018-02-12T02:56:59.963Z,8.20
2018-02-12T02:59:27.382Z,8.30
2018-02-12T03:01:54.767Z,7.23
2018-02-12T03:04:22.213Z,8.90
2018-02-12T03:06:49.602Z,7.40
2018-02-12T03:09:17.041Z,7.80
2018-02-12T03:11:44.462Z,7.83
2018-02-12T03:14:11.846Z,6.80
2018-02-12T03:16:39.234Z,6.67
2018-02-12T03:19:06.725Z,6.03
2018-02-12T03:21:34.116Z,7.10
2018-02-12T03:24:01.505Z,7.17
2018-02-12T03:26:28.890Z,6.73
2018-02-12T03:28:56.342Z,6.70
2018-02-12T03:31:23.739Z,6.37
2018-02-12T03:33:51.126Z,6.77
2018-02-12T03:36:18.502Z,6.23
2018-02-12T03:38:45.905Z,6.70
2018-02-12T03:41:13.299Z,7.50
2018-02-12T03:43:40.781Z,6.90
2018-02-12T03:46:08.171Z,7.00
2018-02-12T03:48:35.550Z,6.57
2018-02-12T03:51:03.001Z,6.43
2018-02-12T03:53:30.378Z,6.30
2018-02-12T03:55:57.781Z,6.80
2018-02-12T03:58:25.165Z,5.90
2018-02-12T04:00:52.560Z,5.80
2018-02-12T04:03:19.961Z,6.10
2018-02-12T04:05:47.443Z,5.90
2018-02-12T04:08:14.821Z,5.50
2018-02-12T04:10:42.215Z,6.27
2018-02-12T04:13:09.599Z,6.57
2018-02-12T04:15:36.986Z,6.30
2018-02-12T04:18:04.370Z,6.50
2018-02-12T04:20:31.748Z,7.00
2018-02-12T04:22:59.426Z,7.87
2018-02-12T04:25:26.861Z,7.33
2018-02-12T04:27:54.348Z,7.70
2018-02-12T04:30:21.717Z,7.20
2018-02-12T04:32:49.147Z,8.20
2018-02-12T04:35:16.538Z,7.80
2018-02-12T04:37:43.958Z,7.77
2018-02-12T04:40:11.432Z,6.90
2018-02-12T04:42:38.798Z,6.93
2018-02-12T04:45:06.188Z,7.73
2018-02-12T04:47:33.570Z,7.47
2018-02-12T04:50:00.981Z,7.53
2018-02-12T04:52:28.387Z,7.80
2018-02-12T04:54:55.771Z,7.13
2018-02-12T04:57:23.158Z,7.70
2018-02-12T04:59:50.645Z,7.57
2018-02-12T05:02:18.026Z,6.30
2018-02-12T05:04:45.438Z,6.60
2018-02-12T05:07:12.825Z,6.67
2018-02-12T05:09:40.220Z,6.70
2018-02-12T05:12:07.621Z,6.07
2018-02-12T05:14:35.088Z,6.40
2018-02-12T05:17:02.466Z,5.83
2018-02-12T05:19:29.881Z,6.70
2018-02-12T05:21:57.338Z,6.20
2018-02-12T05:24:24.728Z,5.67
2018-02-12T05:26:52.154Z,5.50
2018-02-12T05:29:19.537Z,6.90
2018-02-12T05:31:46.930Z,6.40
2018-02-12T05:34:14.564Z,6.70
2018-02-12T05:36:41.995Z,5.60
2018-02-12T05:39:09.370Z,6.03
2018-02-12T05:41:36.762Z,7.23
2018-02-12T05:44:04.246Z,7.10
2018-02-12T05:46:31.630Z,6.30
2018-02-12T05:48:59.054Z,6.13
2018-02-12T05:51:26.437Z,5.77
2018-02-12T05:53:53.819Z,6.50
2018-02-12T05:56:21.213Z,5.60
2018-02-12T05:58:48.629Z,5.90
2018-02-12T06:01:15.982Z,5.70
2018-02-12T06:03:43.366Z,6.60
2018-02-12T06:06:10.833Z,6.60
2018-02-12T06:08:38.237Z,6.10
2018-02-12T06:11:05.614Z,6.20
2018-02-12T06:13:33.001Z,6.70
2018-02-12T06:16:00.399Z,7.20
2018-02-12T06:18:27.815Z,6.63
2018-02-12T06:20:55.197Z,6.50
2018-02-12T06:23:22.657Z,6.63
2018-02-12T06:25:50.051Z,8.03
2018-02-12T06:28:17.425Z,7.77
2018-02-12T06:30:44.886Z,8.80
2018-02-12T06:33:12.282Z,9.00
2018-02-12T06:35:39.651Z,8.80
2018-02-12T06:38:07.026Z,8.93
2018-02-12T06:40:34.511Z,9.77
2018-02-12T06:43:01.890Z,9.43
2018-02-12T06:45:29.318Z,8.80
2018-02-12T06:47:56.698Z,8.57
2018-02-12T06:50:24.081Z,9.43
2018-02-12T06:52:51.485Z,9.07
2018-02-12T06:55:18.942Z,9.07
2018-02-12T06:57:46.335Z,9.13
2018-02-12T07:00:13.755Z,10.43
2018-02-12T07:02:41.142Z,9.07
2018-02-12T07:05:08.534Z,8.87
2018-02-12T07:07:35.914Z,8.80
2018-02-12T07:10:03.302Z,8.03
2018-02-12T07:12:30.714Z,8.77
2018-02-12T07:14:58.104Z,7.20
2018-02-12T07:17:25.502Z,8.80
2018-02-12T07:19:52.886Z,7.83
2018-02-12T07:22:20.275Z,8.20
2018-02-12T07:24:47.663Z,7.83
2018-02-12T07:27:15.053Z,8.70
2018-02-12T07:29:42.502Z,7.57
2018-02-12T07:32:09.966Z,7.20
2018-02-12T07:34:37.341Z,8.13
2018-02-12T07:37:04.738Z,8.37
2018-02-12T07:39:32.127Z,7.30
2018-02-12T07:41:59.519Z,6.40
2018-02-12T07:44:26.907Z,6.93
2018-02-12T07:46:54.394Z,6.10
2018-02-12T07:49:21.850Z,5.87
2018-02-12T07:51:49.237Z,6.00
2018-02-12T07:54:16.625Z,4.07
2018-02-12T07:56:44.114Z,5.77
2018-02-12T07:59:11.570Z,4.57
2018-02-12T08:01:38.959Z,4.27
2018-02-12T08:04:06.334Z,3.70
2018-02-12T08:06:33.718Z,3.50
2018-02-12T08:09:01.186Z,3.37
2018-02-12T08:11:28.583Z,3.00
2018-02-12T08:13:55.967Z,3.40
2018-02-12T08:16:23.358Z,3.10
2018-02-12T08:18:50.806Z,3.20
2018-02-12T08:21:18.266Z,3.30
2018-02-12T08:23:45.650Z,3.13
2018-02-12T08:26:13.077Z,3.40
2018-02-12T08:28:40.536Z,2.43
2018-02-12T08:31:07.922Z,2.57
2018-02-12T08:33:35.310Z,3.10
2018-02-12T08:36:02.793Z,2.90
2018-02-12T08:38:30.259Z,2.27
2018-02-12T08:40:57.641Z,2.90
2018-02-12T08:43:25.022Z,2.43
2018-02-12T08:45:52.420Z,2.33
2018-02-12T08:48:19.882Z,2.20
2018-02-12T08:50:47.319Z,2.30
2018-02-12T08:53:14.690Z,2.87
2018-02-12T08:55:42.083Z,3.63
2018-02-12T08:58:09.464Z,2.30
2018-02-12T09:00:36.958Z,2.87
2018-02-12T09:03:04.342Z,2.60
2018-02-12T09:05:31.738Z,3.20
2018-02-12T09:07:59.133Z,3.10
2018-02-12T09:10:26.578Z,2.50
2018-02-12T09:12:54.031Z,3.27
2018-02-12T09:15:21.501Z,2.50
2018-02-12T09:17:48.946Z,2.20
2018-02-12T09:20:16.333Z,3.03
2018-02-12T09:22:43.765Z,2.10
2018-02-12T09:25:11.214Z,2.00
2018-02-12T09:27:38.613Z,2.07
2018-02-12T09:30:05.995Z,2.03
2018-02-12T09:32:33.384Z,2.20
2018-02-12T09:35:00.772Z,2.10
2018-02-12T09:37:28.159Z,2.40
2018-02-12T09:39:55.654Z,2.40
2018-02-12T09:42:23.390Z,2.00
2018-02-12T09:44:50.866Z,1.63
2018-02-12T09:47:18.259Z,2.07
2018-02-12T09:49:45.641Z,2.07
2018-02-12T09:52:13.126Z,1.80
2018-02-12T09:54:40.509Z,1.90
2018-02-12T09:57:07.907Z,1.83
2018-02-12T09:59:35.282Z,1.70
2018-02-12T10:02:02.686Z,2.17
2018-02-12T10:04:30.622Z,1.63
2018-02-12T10:06:58.082Z,1.60
2018-02-12T10:09:25.533Z,2.03
2018-02-12T10:11:52.959Z,1.97
2018-02-12T10:14:20.314Z,1.50
2018-02-12T10:16:48.519Z,1.83
2018-02-12T10:19:15.978Z,2.00
2018-02-12T10:21:43.366Z,1.77
2018-02-12T10:24:10.750Z,2.07
2018-02-12T10:26:38.142Z,1.47
2018-02-12T10:29:05.526Z,1.67
2018-02-12T10:31:32.917Z,1.65
2018-02-12T10:34:00.298Z,1.63
2018-02-12T10:36:27.691Z,1.50
2018-02-12T10:38:55.125Z,1.60
2018-02-12T10:41:22.510Z,1.67
2018-02-12T10:43:49.895Z,2.07
2018-02-12T10:46:17.382Z,1.40
2018-02-12T10:48:44.839Z,1.50
2018-02-12T10:51:12.230Z,1.63
2018-02-12T10:53:39.650Z,1.80
2018-02-12T10:56:07.033Z,2.20
2018-02-12T10:58:34.431Z,2.00
2018-02-12T11:01:01.926Z,1.83
2018-02-12T11:03:29.318Z,1.50
2018-02-12T11:05:56.737Z,1.40
2018-02-12T11:08:24.130Z,1.73
2018-02-12T11:10:51.509Z,2.13
2018-02-12T11:13:18.995Z,1.50
2018-02-12T11:15:46.388Z,1.37
2018-02-12T11:18:13.775Z,1.60
2018-02-12T11:20:41.154Z,1.53
2018-02-12T11:23:08.618Z,1.67
2018-02-12T11:25:36.070Z,2.17
2018-02-12T11:28:03.458Z,2.17
2018-02-12T11:30:30.848Z,2.70
2018-02-12T11:32:58.243Z,1.67
2018-02-12T11:35:25.641Z,1.73
2018-02-12T11:37:53.030Z,1.67
2018-02-12T11:40:20.416Z,1.23
2018-02-12T11:42:47.811Z,1.80
2018-02-12T11:45:15.189Z,1.50
2018-02-12T11:47:42.569Z,2.27
2018-02-12T11:50:09.962Z,1.70
2018-02-12T11:52:37.380Z,1.80
2018-02-12T11:55:04.763Z,1.30
2018-02-12T11:57:33.174Z,1.77
2018-02-12T12:00:00.566Z,1.70
2018-02-12T12:02:27.959Z,1.73
2018-02-12T12:04:55.339Z,1.80
2018-02-12T12:07:22.730Z,1.00
2018-02-12T12:09:50.187Z,2.17
2018-02-12T12:12:17.648Z,4.20
2018-02-12T12:14:45.033Z,3.23
2018-02-12T12:17:12.464Z,1.77
2018-02-12T12:19:39.837Z,1.50
2018-02-12T12:22:07.229Z,1.43
2018-02-12T12:24:34.602Z,2.40
2018-02-12T12:27:01.992Z,1.90
2018-02-12T12:29:29.379Z,1.70
2018-02-12T12:31:56.790Z,2.50
2018-02-12T12:34:24.154Z,2.47
2018-02-12T12:36:51.537Z,1.43
2018-02-12T12:39:18.915Z,1.90
2018-02-12T12:41:46.409Z,1.43
2018-02-12T12:44:13.861Z,2.67
2018-02-12T12:46:41.246Z,1.73
2018-02-12T12:49:08.638Z,1.57
2018-02-12T12:51:36.020Z,1.83
2018-02-12T12:54:03.407Z,1.60
2018-02-12T12:56:30.829Z,2.20
2018-02-12T12:58:58.263Z,1.60
2018-02-12T13:01:25.745Z,1.83
2018-02-12T13:03:53.154Z,1.90
2018-02-12T13:06:20.562Z,1.40
2018-02-12T13:08:47.952Z,1.53
2018-02-12T13:11:15.325Z,1.47
2018-02-12T13:13:42.739Z,1.70
2018-02-12T13:16:10.190Z,1.50
2018-02-12T13:18:37.648Z,1.50
2018-02-12T13:21:05.039Z,1.30
2018-02-12T13:23:32.575Z,1.80
2018-02-12T13:25:59.958Z,1.87
2018-02-12T13:28:27.354Z,1.67
2018-02-12T13:30:54.741Z,1.83
2018-02-12T13:33:22.145Z,1.80
2018-02-12T13:35:49.538Z,2.10
2018-02-12T13:38:16.930Z,1.70
2018-02-12T13:40:44.342Z,2.83
2018-02-12T13:43:11.740Z,2.93
2018-02-12T13:45:39.155Z,2.20
2018-02-12T13:48:06.542Z,1.70
2018-02-12T13:50:33.967Z,1.93
2018-02-12T13:53:01.401Z,1.50
2018-02-12T13:55:28.791Z,2.03
2018-02-12T13:57:56.241Z,2.50
2018-02-12T14:00:23.637Z,2.40
2018-02-12T14:02:51.052Z,2.20
2018-02-12T14:05:18.421Z,1.37
2018-02-12T14:07:45.823Z,2.90
2018-02-12T14:10:13.305Z,1.57
2018-02-12T14:12:40.701Z,1.60
2018-02-12T14:15:08.136Z,1.83
2018-02-12T14:17:35.581Z,1.57
2018-02-12T14:20:02.970Z,2.10
2018-02-12T14:22:30.362Z,1.87
2018-02-12T14:24:57.746Z,1.53
2018-02-12T14:27:25.201Z,1.90
2018-02-12T14:29:52.592Z,2.63
2018-02-12T14:32:19.975Z,2.00
2018-02-12T14:34:47.467Z,2.20
2018-02-12T14:37:14.846Z,1.90
2018-02-12T14:39:42.244Z,1.80
2018-02-12T14:42:09.739Z,2.57
2018-02-12T14:44:37.127Z,2.27
2018-02-12T14:47:04.511Z,2.27
2018-02-12T14:49:31.910Z,2.50
2018-02-12T14:51:59.290Z,0.80
2018-02-12T14:54:26.714Z,0.67
2018-02-12T14:56:54.173Z,0.80
2018-02-12T14:59:21.571Z,1.00
2018-02-12T15:01:48.978Z,0.87
2018-02-12T15:04:16.350Z,0.70
2018-02-12T15:06:43.846Z,0.60
2018-02-12T15:09:11.237Z,0.97
2018-02-12T15:11:38.613Z,1.33
2018-02-12T15:14:06.053Z,1.20
2018-02-12T15:16:33.443Z,0.80
2018-02-12T15:19:00.874Z,0.80
2018-02-12T15:21:28.271Z,0.80
2018-02-12T15:23:55.684Z,0.90
2018-02-12T15:26:23.141Z,0.83
2018-02-12T15:28:50.542Z,0.90
2018-02-12T15:31:18.026Z,0.87
2018-02-12T15:33:45.419Z,0.67
2018-02-12T15:36:12.862Z,1.20
2018-02-12T15:38:40.251Z,1.37
2018-02-12T15:41:07.671Z,0.77
2018-02-12T15:43:35.126Z,0.87
2018-02-12T15:46:02.506Z,0.90
2018-02-12T15:48:29.945Z,0.60
2018-02-12T15:50:57.398Z,0.93
2018-02-12T15:53:24.787Z,0.87
2018-02-12T15:55:52.207Z,0.93
2018-02-12T15:58:19.599Z,2.00
2018-02-12T16:00:46.983Z,1.30
2018-02-12T16:03:14.374Z,0.90
2018-02-12T16:05:41.762Z,1.23
2018-02-12T16:08:09.173Z,1.30
2018-02-12T16:10:36.614Z,1.50
2018-02-12T16:13:03.958Z,1.07
2018-02-12T16:15:31.341Z,1.57
2018-02-12T16:17:58.797Z,1.60
2018-02-12T16:20:26.243Z,1.73
2018-02-12T16:22:53.640Z,1.40
2018-02-12T16:25:21.031Z,1.60
2018-02-12T16:27:48.415Z,2.67
2018-02-12T16:30:15.794Z,1.90
2018-02-12T16:32:43.183Z,1.53
2018-02-12T16:35:10.594Z,1.40
2018-02-12T16:37:37.966Z,2.03
2018-02-12T16:40:05.355Z,1.87
2018-02-12T16:42:32.736Z,1.40
2018-02-12T16:45:00.218Z,1.50
2018-02-12T16:47:27.590Z,1.57
2018-02-12T16:49:55.014Z,1.40
2018-02-12T16:52:22.483Z,1.70
2018-02-12T16:54:49.935Z,2.07
2018-02-12T16:57:17.385Z,1.30
2018-02-12T16:59:44.778Z,1.53
2018-02-12T17:02:12.194Z,1.50
2018-02-12T17:04:39.603Z,1.80
2018-02-12T17:07:07.020Z,2.63
2018-02-12T17:09:34.465Z,1.90
2018-02-12T17:12:01.946Z,1.63
2018-02-12T17:14:29.378Z,1.50
2018-02-12T17:16:56.767Z,1.90
2018-02-12T17:19:24.154Z,1.60
2018-02-12T17:21:51.583Z,1.97
2018-02-12T17:24:19.003Z,1.33
2018-02-12T17:26:46.377Z,1.53
2018-02-12T17:29:13.825Z,1.80
2018-02-12T17:31:41.666Z,1.87
2018-02-12T17:34:09.134Z,2.37
2018-02-12T17:36:36.526Z,1.67
2018-02-12T17:39:03.922Z,2.07
2018-02-12T17:41:31.297Z,1.90
2018-02-12T17:43:58.686Z,1.30
2018-02-12T17:46:26.111Z,1.40
2018-02-12T17:48:53.567Z,1.40
2018-02-12T17:51:20.957Z,1.70
2018-02-12T17:53:48.346Z,1.40
2018-02-12T17:56:15.821Z,1.27
2018-02-12T17:58:43.289Z,2.50
2018-02-12T18:01:10.675Z,1.10
2018-02-12T18:03:38.095Z,1.60
2018-02-12T18:06:05.477Z,2.70
2018-02-12T18:08:33.023Z,2.10
2018-02-12T18:11:00.419Z,1.50
2018-02-12T18:13:27.799Z,1.93
2018-02-12T18:15:55.221Z,1.47
2018-02-12T18:18:22.677Z,1.67
2018-02-12T18:20:50.072Z,1.80
2018-02-12T18:23:17.457Z,1.60
2018-02-12T18:25:44.872Z,2.33
2018-02-12T18:28:12.231Z,1.90
2018-02-12T18:30:39.649Z,2.13
2018-02-12T18:33:07.122Z,1.63
2018-02-12T18:35:34.522Z,2.43
2018-02-12T18:38:01.938Z,2.30
2018-02-12T18:40:29.343Z,2.60
2018-02-12T18:42:56.745Z,2.83
2018-02-12T18:45:24.166Z,2.27
2018-02-12T18:47:51.547Z,2.13
2018-02-12T18:50:18.943Z,2.00
2018-02-12T18:52:46.323Z,1.80
2018-02-12T18:55:13.747Z,2.50
2018-02-12T18:57:41.131Z,1.97
2018-02-12T19:00:08.555Z,3.57
2018-02-12T19:02:35.932Z,3.00
2018-02-12T19:05:03.331Z,3.17
2018-02-12T19:07:30.802Z,3.57
2018-02-12T19:09:58.214Z,3.80
2018-02-12T19:12:25.609Z,3.40
2018-02-12T19:14:53.009Z,3.50
2018-02-12T19:17:20.424Z,2.80
2018-02-12T19:19:47.896Z,3.47
2018-02-12T19:22:15.290Z,2.80
2018-02-12T19:24:42.693Z,3.53
2018-02-12T19:27:10.094Z,3.20
2018-02-12T19:29:37.559Z,5.23
2018-02-12T19:32:04.959Z,4.60
2018-02-12T19:34:32.387Z,8.33
2018-02-12T19:36:59.876Z,6.70
2018-02-12T19:39:27.332Z,11.50
2018-02-12T19:41:54.773Z,6.90
2018-02-12T19:44:23.114Z,3.53
2018-02-12T19:46:50.513Z,3.70
2018-02-12T19:49:17.940Z,4.00
2018-02-12T19:51:45.318Z,3.53
2018-02-12T19:54:12.726Z,3.20
2018-02-12T19:56:40.110Z,3.60
2018-02-12T20:02:29.242Z,3.63
2018-02-12T20:04:56.635Z,4.30
2018-02-12T20:07:24.014Z,6.10
2018-02-12T20:09:51.488Z,4.40
2018-02-12T20:12:18.875Z,5.13
2018-02-12T20:14:46.258Z,4.83
2018-02-12T20:17:13.821Z,5.30
2018-02-12T20:19:41.360Z,4.97
2018-02-12T20:22:08.980Z,4.93
2018-02-12T20:24:36.571Z,6.77
2018-02-12T20:27:04.009Z,5.10
2018-02-12T20:29:31.472Z,5.63
2018-02-12T20:31:58.930Z,5.10
2018-02-12T20:34:26.466Z,6.70
2018-02-12T20:36:53.853Z,6.77
2018-02-12T20:39:21.392Z,6.27
2018-02-12T20:41:48.790Z,6.50
2018-02-12T20:44:16.280Z,7.63
2018-02-12T20:46:43.869Z,5.83
2018-02-12T20:49:11.396Z,6.13
2018-02-12T20:51:38.965Z,6.93
2018-02-12T20:54:06.361Z,8.60
2018-02-12T20:56:33.786Z,6.70
2018-02-12T20:59:01.242Z,7.70
2018-02-12T21:01:28.639Z,7.63
2018-02-12T21:03:56.055Z,7.87
2018-02-12T21:06:23.520Z,7.43
2018-02-12T21:08:50.902Z,8.77
2018-02-12T21:11:18.298Z,7.70
2018-02-12T21:13:45.690Z,8.40
2018-02-12T21:16:13.082Z,6.93
2018-02-12T21:18:40.470Z,7.70
2018-02-12T21:21:07.938Z,7.83
2018-02-12T21:23:35.331Z,7.83
2018-02-12T21:26:02.721Z,8.27
2018-02-12T21:28:30.198Z,8.43
2018-02-12T21:30:57.597Z,8.10
2018-02-12T21:33:24.987Z,9.07
2018-02-12T21:35:52.394Z,7.70
2018-02-12T21:38:19.778Z,9.70
2018-02-12T21:40:47.229Z,9.00
2018-02-12T21:43:14.571Z,8.40
2018-02-12T21:45:41.965Z,8.27
2018-02-12T21:48:09.356Z,8.37
2018-02-12T21:50:36.850Z,9.10
2018-02-12T21:53:04.311Z,8.30
2018-02-12T21:55:31.708Z,10.27
2018-02-12T21:57:59.097Z,8.50
2018-02-12T22:00:26.502Z,8.33
2018-02-12T22:02:53.929Z,8.10
2018-02-12T22:05:21.379Z,7.80
2018-02-12T22:07:48.770Z,9.40
2018-02-12T22:10:16.166Z,9.20
2018-02-12T22:12:43.549Z,9.00
2018-02-12T22:15:11.003Z,8.47
2018-02-12T22:17:38.390Z,9.17
2018-02-12T22:20:05.791Z,10.60
2018-02-12T22:22:33.194Z,9.33
2018-02-12T22:25:00.580Z,9.57
2018-02-12T22:27:27.998Z,9.40
2018-02-12T22:29:55.381Z,9.40
2018-02-12T22:32:22.782Z,9.13
2018-02-12T22:34:50.177Z,8.97
2018-02-12T22:37:17.598Z,9.33
2018-02-12T22:39:45.047Z,9.33
2018-02-12T22:42:12.449Z,9.50
2018-02-12T22:44:39.837Z,8.53
2018-02-12T22:47:07.286Z,9.70
2018-02-12T22:49:34.678Z,9.30
2018-02-12T22:52:02.101Z,10.30
2018-02-12T22:54:29.498Z,11.17
2018-02-12T22:56:56.898Z,9.40
2018-02-12T22:59:24.286Z,9.30
2018-02-12T23:01:51.681Z,9.90
2018-02-12T23:04:19.074Z,9.40
2018-02-12T23:06:46.461Z,8.87
2018-02-12T23:09:13.854Z,10.00
2018-02-12T23:11:41.251Z,9.63
2018-02-12T23:14:08.638Z,9.60
2018-02-12T23:16:36.071Z,9.23
2018-02-12T23:19:03.434Z,8.73
2018-02-12T23:21:30.906Z,9.60
2018-02-12T23:23:58.294Z,8.53
2018-02-12T23:26:25.686Z,8.67
2018-02-12T23:28:53.074Z,9.13
2018-02-12T23:31:20.528Z,9.00
2018-02-12T23:33:47.909Z,8.77
2018-02-12T23:36:15.314Z,9.03
2018-02-12T23:38:42.710Z,10.60
2018-02-12T23:41:10.102Z,9.63
2018-02-12T23:43:37.495Z,11.30
2018-02-12T23:46:04.898Z,10.73
2018-02-12T23:48:32.302Z,11.07
2018-02-12T23:50:59.703Z,9.07
2018-02-12T23:53:27.095Z,9.30
2018-02-12T23:55:54.488Z,8.80
2018-02-12T23:58:21.892Z,8.63
